Accueil
METAR-TAF:

METAR-TAF

Aéroports :

Florennes, Belgique

Base aérienne de Florennes

latitude: 50-14N, longitude: 004-39E, altitude: 279 m

Observation

Le bulletin a été fait il y a 21 minutes, à 20:55 UTC
Vent 6 kt de est/nord-est
Température -4°C
Humidité 68%
Pression 1034 hPa
Visibilité 10 km ou plus
Quelques nuages à une hauteur de 25000 ft

METAR: EBFS 192055Z 07006KT 9999 FEW250 M04/M09 Q1034 BLU

Heure: 22:16 (21:16 UTC)

Prévision

Le bulletin a été fait il y a 5 heures et 35 minutes, à 15:41 UTC
Prévision valable du 19 à 19 UTC au 20 à 07 UTC
Vent 8 kt de est
Visibilité 10 km ou plus
Quelques nuages à une hauteur de 24000 ft
Probabilité 30% :
Temporairement
du 20 à 03 UTC au 20 à 07 UTC
Visibilité: 5000 m
brume

TAF: EBFS 191541Z 1919/2007 08008KT 9999 FEW240 PROB30 TEMPO 2003/2007 5000 BR

Observations et prévisions météorologiques de plus de 4000 aéroports (messages METAR et TAF).

Les stations disponibles sont représentées par des disques jaunes et rouges sur la carte.

Passer la souris dessus pour voir le nom de la station.

Cliquer dessus pour voir les observations et prévisions météorologiques.

Pour changer de carte: cliquez sur les boutons verts avec une croix noire pour zoomer, sur le bouton vert avec un tiret pour effectuer un zoom arrière, ou sur les flèches vertes pour les cartes adjacentes.


METAR-TAF: